Amidon, North Dakota
Current Conditions -  °F | °C
As of 1:56 PM on Thursday 23 Oct 2014 (Local Time) from KDIK Reporting Station
Clear Clear  
Wind Chill: 73°   Ceiling: Unl
Heat Index: 73°   Visibility: 10mi
Dew Point: 25°   Wind: 16mph
Humidity: 17%   Direction: 230°SW
Pressure: 29.81"   Gusts: NA
Location:  46.48°N, 103.32°W
Report Text: KDIK 231956Z AUTO 23014KT 10SM CLR 23/M04 A2981 RMK AO2 SLP094 T02281039
Loading
Personal Weather Stations






























Interactive Weather Map
Tropical Storm Tracking
New forecast layout! Learn more

10-Day Weather Forecast

Advertisements
Track Severe Weather on mobile